Aviation Digital Data Service (ADDS)

Output produced by METARs form (0012 UTC 24 October 2019)
found at http://www.aviationweather.gov/metar/data/
 
METAR text: VLVT 240000Z 00000KT 5000 BR SCT050 26/26 Q1011 NOSIG
Conditions at: VLVT (VIENTIANE/WATTAY, LA) observed 0000 UTC 24 October 2019
Temperature: 26.0°C (79°F)
Dewpoint: 26.0°C (79°F) [RH = 100%]
Pressure (altimeter): 29.85 inches Hg (1011.0 mb)
Winds: calm
Visibility: 3 miles ( 5 km)
Ceiling: at least 12,000 feet AGL
Clouds: scattered clouds at 5000 feet AGL
Weather: BR  (mist)

METAR text: VLVT 232330Z 36002KT 5000 BR FEW050 25/25 Q1010 NOSIG
Conditions at: VLVT (VIENTIANE/WATTAY, LA) observed 2330 UTC 23 October 2019
Temperature: 25.0°C (77°F)
Dewpoint: 25.0°C (77°F) [RH = 100%]
Pressure (altimeter): 29.82 inches Hg (1010.0 mb)
Winds: from the N (360 degrees) at 2 MPH (2 knots; 1.0 m/s)
Visibility: 3 miles ( 5 km)
Ceiling: at least 12,000 feet AGL
Clouds: few clouds at 5000 feet AGL
Weather: BR  (mist)

METAR text: VLVT 232300Z 34002KT 5000 BR FEW050 24/24 Q1010 NOSIG
Conditions at: VLVT (VIENTIANE/WATTAY, LA) observed 2300 UTC 23 October 2019
Temperature: 24.0°C (75°F)
Dewpoint: 24.0°C (75°F) [RH = 100%]
Pressure (altimeter): 29.82 inches Hg (1010.0 mb)
Winds: from the NNW (340 degrees) at 2 MPH (2 knots; 1.0 m/s)
Visibility: 3 miles ( 5 km)
Ceiling: at least 12,000 feet AGL
Clouds: few clouds at 5000 feet AGL
Weather: BR  (mist)

METAR text: VLVT 231600Z 00000KT 3000 BR NSC 26/25 Q1009 NOSIG
Conditions at: VLVT (VIENTIANE/WATTAY, LA) observed 1600 UTC 23 October 2019
Temperature: 26.0°C (79°F)
Dewpoint: 25.0°C (77°F) [RH = 94%]
Pressure (altimeter): 29.79 inches Hg (1009.0 mb)
Winds: calm
Visibility: 1.86 miles (2.99 km)
Ceiling: at least 12,000 feet AGL
Clouds: sky clear below 12,000 feet AGL
Weather: BR  (mist)

METAR text: VLVT 231530Z 00000KT 3000 BR NSC 26/25 Q1009 NOSIG
Conditions at: VLVT (VIENTIANE/WATTAY, LA) observed 1530 UTC 23 October 2019
Temperature: 26.0°C (79°F)
Dewpoint: 25.0°C (77°F) [RH = 94%]
Pressure (altimeter): 29.79 inches Hg (1009.0 mb)
Winds: calm
Visibility: 1.86 miles (2.99 km)
Ceiling: at least 12,000 feet AGL
Clouds: sky clear below 12,000 feet AGL
Weather: BR  (mist)

METAR text: VLVT 231500Z 00000KT 3000 BR NSC 26/25 Q1009 NOSIG
Conditions at: VLVT (VIENTIANE/WATTAY, LA) observed 1500 UTC 23 October 2019
Temperature: 26.0°C (79°F)
Dewpoint: 25.0°C (77°F) [RH = 94%]
Pressure (altimeter): 29.79 inches Hg (1009.0 mb)
Winds: calm
Visibility: 1.86 miles (2.99 km)
Ceiling: at least 12,000 feet AGL
Clouds: sky clear below 12,000 feet AGL
Weather: BR  (mist)

METAR text: VLVT 231430Z 22002KT 4000 BR NSC 27/26 Q1009 NOSIG
Conditions at: VLVT (VIENTIANE/WATTAY, LA) observed 1430 UTC 23 October 2019
Temperature: 27.0°C (81°F)
Dewpoint: 26.0°C (79°F) [RH = 94%]
Pressure (altimeter): 29.79 inches Hg (1009.0 mb)
Winds: from the SW (220 degrees) at 2 MPH (2 knots; 1.0 m/s)
Visibility: 2.49 miles (4.01 km)
Ceiling: at least 12,000 feet AGL
Clouds: sky clear below 12,000 feet AGL
Weather: BR  (mist)

METAR text: VLVT 231400Z 00000KT 4000 BR NSC 27/25 Q1008 NOSIG
Conditions at: VLVT (VIENTIANE/WATTAY, LA) observed 1400 UTC 23 October 2019
Temperature: 27.0°C (81°F)
Dewpoint: 25.0°C (77°F) [RH = 89%]
Pressure (altimeter): 29.76 inches Hg (1008.0 mb)
Winds: calm
Visibility: 2.49 miles (4.01 km)
Ceiling: at least 12,000 feet AGL
Clouds: sky clear below 12,000 feet AGL
Weather: BR  (mist)

METAR text: VLVT 231330Z 00000KT 4000 BR NSC 27/24 Q1008 NOSIG
Conditions at: VLVT (VIENTIANE/WATTAY, LA) observed 1330 UTC 23 October 2019
Temperature: 27.0°C (81°F)
Dewpoint: 24.0°C (75°F) [RH = 84%]
Pressure (altimeter): 29.76 inches Hg (1008.0 mb)
Winds: calm
Visibility: 2.49 miles (4.01 km)
Ceiling: at least 12,000 feet AGL
Clouds: sky clear below 12,000 feet AGL
Weather: BR  (mist)

METAR text: VLVT 231300Z 00000KT 4000 BR NSC 27/24 Q1008 NOSIG
Conditions at: VLVT (VIENTIANE/WATTAY, LA) observed 1300 UTC 23 October 2019
Temperature: 27.0°C (81°F)
Dewpoint: 24.0°C (75°F) [RH = 84%]
Pressure (altimeter): 29.76 inches Hg (1008.0 mb)
Winds: calm
Visibility: 2.49 miles (4.01 km)
Ceiling: at least 12,000 feet AGL
Clouds: sky clear below 12,000 feet AGL
Weather: BR  (mist)

METAR text: VLVT 231230Z 00000KT 4000 BR NSC 28/24 Q1007 NOSIG
Conditions at: VLVT (VIENTIANE/WATTAY, LA) observed 1230 UTC 23 October 2019
Temperature: 28.0°C (82°F)
Dewpoint: 24.0°C (75°F) [RH = 79%]
Pressure (altimeter): 29.73 inches Hg (1007.0 mb)
Winds: calm
Visibility: 2.49 miles (4.01 km)
Ceiling: at least 12,000 feet AGL
Clouds: sky clear below 12,000 feet AGL
Weather: BR  (mist)

METAR text: VLVT 231200Z 00000KT 4000 BR NSC 28/23 Q1007 NOSIG
Conditions at: VLVT (VIENTIANE/WATTAY, LA) observed 1200 UTC 23 October 2019
Temperature: 28.0°C (82°F)
Dewpoint: 23.0°C (73°F) [RH = 74%]
Pressure (altimeter): 29.73 inches Hg (1007.0 mb)
Winds: calm
Visibility: 2.49 miles (4.01 km)
Ceiling: at least 12,000 feet AGL
Clouds: sky clear below 12,000 feet AGL
Weather: BR  (mist)

METAR text: VLVT 231130Z 00000KT 5000 BR FEW050 28/23 Q1007 NOSIG
Conditions at: VLVT (VIENTIANE/WATTAY, LA) observed 1130 UTC 23 October 2019
Temperature: 28.0°C (82°F)
Dewpoint: 23.0°C (73°F) [RH = 74%]
Pressure (altimeter): 29.73 inches Hg (1007.0 mb)
Winds: calm
Visibility: 3 miles ( 5 km)
Ceiling: at least 12,000 feet AGL
Clouds: few clouds at 5000 feet AGL
Weather: BR  (mist)

METAR text: VLVT 231100Z 27002KT 6000 FEW050 30/23 Q1006 NOSIG
Conditions at: VLVT (VIENTIANE/WATTAY, LA) observed 1100 UTC 23 October 2019
Temperature: 30.0°C (86°F)
Dewpoint: 23.0°C (73°F) [RH = 66%]
Pressure (altimeter): 29.70 inches Hg (1006.0 mb)
Winds: from the W (270 degrees) at 2 MPH (2 knots; 1.0 m/s)
Visibility: 4 miles ( 6 km)
Ceiling: at least 12,000 feet AGL
Clouds: few clouds at 5000 feet AGL
Weather: no significant weather observed at this time

METAR text: VLVT 231030Z 22002KT 8000 FEW020 33/22 Q1006 NOSIG
Conditions at: VLVT (VIENTIANE/WATTAY, LA) observed 1030 UTC 23 October 2019
Temperature: 33.0°C (91°F)
Dewpoint: 22.0°C (72°F) [RH = 53%]
Pressure (altimeter): 29.70 inches Hg (1006.0 mb)
Winds: from the SW (220 degrees) at 2 MPH (2 knots; 1.0 m/s)
Visibility: 5 miles ( 8 km)
Ceiling: at least 12,000 feet AGL
Clouds: few clouds at 2000 feet AGL
Weather: no significant weather observed at this time

METAR text: VLVT 231000Z 18002KT 8000 FEW020 34/21 Q1006 NOSIG
Conditions at: VLVT (VIENTIANE/WATTAY, LA) observed 1000 UTC 23 October 2019
Temperature: 34.0°C (93°F)
Dewpoint: 21.0°C (70°F) [RH = 47%]
Pressure (altimeter): 29.70 inches Hg (1006.0 mb)
Winds: from the S (180 degrees) at 2 MPH (2 knots; 1.0 m/s)
Visibility: 5 miles ( 8 km)
Ceiling: at least 12,000 feet AGL
Clouds: few clouds at 2000 feet AGL
Weather: no significant weather observed at this time

METAR text: VLVT 230930Z 24002KT 8000 SCT020 35/22 Q1006 NOSIG
Conditions at: VLVT (VIENTIANE/WATTAY, LA) observed 0930 UTC 23 October 2019
Temperature: 35.0°C (95°F)
Dewpoint: 22.0°C (72°F) [RH = 47%]
Pressure (altimeter): 29.70 inches Hg (1006.0 mb)
Winds: from the WSW (240 degrees) at 2 MPH (2 knots; 1.0 m/s)
Visibility: 5 miles ( 8 km)
Ceiling: at least 12,000 feet AGL
Clouds: scattered clouds at 2000 feet AGL
Weather: no significant weather observed at this time

METAR text: VLVT 230900Z 36002KT 8000 SCT020 35/23 Q1006 NOSIG
Conditions at: VLVT (VIENTIANE/WATTAY, LA) observed 0900 UTC 23 October 2019
Temperature: 35.0°C (95°F)
Dewpoint: 23.0°C (73°F) [RH = 50%]
Pressure (altimeter): 29.70 inches Hg (1006.0 mb)
Winds: from the N (360 degrees) at 2 MPH (2 knots; 1.0 m/s)
Visibility: 5 miles ( 8 km)
Ceiling: at least 12,000 feet AGL
Clouds: scattered clouds at 2000 feet AGL
Weather: no significant weather observed at this time

METAR text: VLVT 230830Z 27002KT 8000 SCT020 35/23 Q1006 NOSIG
Conditions at: VLVT (VIENTIANE/WATTAY, LA) observed 0830 UTC 23 October 2019
Temperature: 35.0°C (95°F)
Dewpoint: 23.0°C (73°F) [RH = 50%]
Pressure (altimeter): 29.70 inches Hg (1006.0 mb)
Winds: from the W (270 degrees) at 2 MPH (2 knots; 1.0 m/s)
Visibility: 5 miles ( 8 km)
Ceiling: at least 12,000 feet AGL
Clouds: scattered clouds at 2000 feet AGL
Weather: no significant weather observed at this time

METAR text: VLVT 230800Z 30002KT 8000 SCT020 34/23 Q1006 NOSIG
Conditions at: VLVT (VIENTIANE/WATTAY, LA) observed 0800 UTC 23 October 2019
Temperature: 34.0°C (93°F)
Dewpoint: 23.0°C (73°F) [RH = 53%]
Pressure (altimeter): 29.70 inches Hg (1006.0 mb)
Winds: from the WNW (300 degrees) at 2 MPH (2 knots; 1.0 m/s)
Visibility: 5 miles ( 8 km)
Ceiling: at least 12,000 feet AGL
Clouds: scattered clouds at 2000 feet AGL
Weather: no significant weather observed at this time

METAR text: VLVT 230730Z 32002KT 8000 SCT020 35/24 Q1006 NOSIG
Conditions at: VLVT (VIENTIANE/WATTAY, LA) observed 0730 UTC 23 October 2019
Temperature: 35.0°C (95°F)
Dewpoint: 24.0°C (75°F) [RH = 53%]
Pressure (altimeter): 29.70 inches Hg (1006.0 mb)
Winds: from the NW (320 degrees) at 2 MPH (2 knots; 1.0 m/s)
Visibility: 5 miles ( 8 km)
Ceiling: at least 12,000 feet AGL
Clouds: scattered clouds at 2000 feet AGL
Weather: no significant weather observed at this time

METAR text: VLVT 230700Z 22002KT 8000 SCT020 35/24 Q1007 NOSIG
Conditions at: VLVT (VIENTIANE/WATTAY, LA) observed 0700 UTC 23 October 2019
Temperature: 35.0°C (95°F)
Dewpoint: 24.0°C (75°F) [RH = 53%]
Pressure (altimeter): 29.73 inches Hg (1007.0 mb)
Winds: from the SW (220 degrees) at 2 MPH (2 knots; 1.0 m/s)
Visibility: 5 miles ( 8 km)
Ceiling: at least 12,000 feet AGL
Clouds: scattered clouds at 2000 feet AGL
Weather: no significant weather observed at this time

METAR text: VLVT 230630Z 32004KT 8000 SCT020 33/24 Q1007 NOSIG
Conditions at: VLVT (VIENTIANE/WATTAY, LA) observed 0630 UTC 23 October 2019
Temperature: 33.0°C (91°F)
Dewpoint: 24.0°C (75°F) [RH = 59%]
Pressure (altimeter): 29.73 inches Hg (1007.0 mb)
Winds: from the NW (320 degrees) at 5 MPH (4 knots; 2.1 m/s)
Visibility: 5 miles ( 8 km)
Ceiling: at least 12,000 feet AGL
Clouds: scattered clouds at 2000 feet AGL
Weather: no significant weather observed at this time

METAR text: VLVT 230600Z 36002KT 8000 SCT020 35/24 Q1008 NOSIG
Conditions at: VLVT (VIENTIANE/WATTAY, LA) observed 0600 UTC 23 October 2019
Temperature: 35.0°C (95°F)
Dewpoint: 24.0°C (75°F) [RH = 53%]
Pressure (altimeter): 29.76 inches Hg (1008.0 mb)
Winds: from the N (360 degrees) at 2 MPH (2 knots; 1.0 m/s)
Visibility: 5 miles ( 8 km)
Ceiling: at least 12,000 feet AGL
Clouds: scattered clouds at 2000 feet AGL
Weather: no significant weather observed at this time

METAR text: VLVT 230530Z 30002KT 8000 FEW020 34/24 Q1008 NOSIG
Conditions at: VLVT (VIENTIANE/WATTAY, LA) observed 0530 UTC 23 October 2019
Temperature: 34.0°C (93°F)
Dewpoint: 24.0°C (75°F) [RH = 56%]
Pressure (altimeter): 29.76 inches Hg (1008.0 mb)
Winds: from the WNW (300 degrees) at 2 MPH (2 knots; 1.0 m/s)
Visibility: 5 miles ( 8 km)
Ceiling: at least 12,000 feet AGL
Clouds: few clouds at 2000 feet AGL
Weather: no significant weather observed at this time

METAR text: VLVT 230500Z 24004KT 8000 FEW020 33/24 Q1009 NOSIG
Conditions at: VLVT (VIENTIANE/WATTAY, LA) observed 0500 UTC 23 October 2019
Temperature: 33.0°C (91°F)
Dewpoint: 24.0°C (75°F) [RH = 59%]
Pressure (altimeter): 29.79 inches Hg (1009.0 mb)
Winds: from the WSW (240 degrees) at 5 MPH (4 knots; 2.1 m/s)
Visibility: 5 miles ( 8 km)
Ceiling: at least 12,000 feet AGL
Clouds: few clouds at 2000 feet AGL
Weather: no significant weather observed at this time

METAR text: VLVT 230430Z 36002KT 8000 FEW020 33/23 Q1009 NOSIG
Conditions at: VLVT (VIENTIANE/WATTAY, LA) observed 0430 UTC 23 October 2019
Temperature: 33.0°C (91°F)
Dewpoint: 23.0°C (73°F) [RH = 56%]
Pressure (altimeter): 29.79 inches Hg (1009.0 mb)
Winds: from the N (360 degrees) at 2 MPH (2 knots; 1.0 m/s)
Visibility: 5 miles ( 8 km)
Ceiling: at least 12,000 feet AGL
Clouds: few clouds at 2000 feet AGL
Weather: no significant weather observed at this time

METAR text: VLVT 230400Z 32004KT 8000 FEW020 33/24 Q1010 NOSIG
Conditions at: VLVT (VIENTIANE/WATTAY, LA) observed 0400 UTC 23 October 2019
Temperature: 33.0°C (91°F)
Dewpoint: 24.0°C (75°F) [RH = 59%]
Pressure (altimeter): 29.82 inches Hg (1010.0 mb)
Winds: from the NW (320 degrees) at 5 MPH (4 knots; 2.1 m/s)
Visibility: 5 miles ( 8 km)
Ceiling: at least 12,000 feet AGL
Clouds: few clouds at 2000 feet AGL
Weather: no significant weather observed at this time

METAR text: VLVT 230330Z 27002KT 8000 NSC 32/24 Q1011 NOSIG
Conditions at: VLVT (VIENTIANE/WATTAY, LA) observed 0330 UTC 23 October 2019
Temperature: 32.0°C (90°F)
Dewpoint: 24.0°C (75°F) [RH = 63%]
Pressure (altimeter): 29.85 inches Hg (1011.0 mb)
Winds: from the W (270 degrees) at 2 MPH (2 knots; 1.0 m/s)
Visibility: 5 miles ( 8 km)
Ceiling: at least 12,000 feet AGL
Clouds: sky clear below 12,000 feet AGL
Weather: no significant weather observed at this time

METAR text: VLVT 230300Z 24002KT 8000 NSC 32/24 Q1011 NOSIG
Conditions at: VLVT (VIENTIANE/WATTAY, LA) observed 0300 UTC 23 October 2019
Temperature: 32.0°C (90°F)
Dewpoint: 24.0°C (75°F) [RH = 63%]
Pressure (altimeter): 29.85 inches Hg (1011.0 mb)
Winds: from the WSW (240 degrees) at 2 MPH (2 knots; 1.0 m/s)
Visibility: 5 miles ( 8 km)
Ceiling: at least 12,000 feet AGL
Clouds: sky clear below 12,000 feet AGL
Weather: no significant weather observed at this time

METAR text: VLVT 230230Z 12002KT 8000 NSC 32/24 Q1011 NOSIG
Conditions at: VLVT (VIENTIANE/WATTAY, LA) observed 0230 UTC 23 October 2019
Temperature: 32.0°C (90°F)
Dewpoint: 24.0°C (75°F) [RH = 63%]
Pressure (altimeter): 29.85 inches Hg (1011.0 mb)
Winds: from the ESE (120 degrees) at 2 MPH (2 knots; 1.0 m/s)
Visibility: 5 miles ( 8 km)
Ceiling: at least 12,000 feet AGL
Clouds: sky clear below 12,000 feet AGL
Weather: no significant weather observed at this time

METAR text: VLVT 230200Z 12002KT 8000 NSC 31/24 Q1011 NOSIG
Conditions at: VLVT (VIENTIANE/WATTAY, LA) observed 0200 UTC 23 October 2019
Temperature: 31.0°C (88°F)
Dewpoint: 24.0°C (75°F) [RH = 66%]
Pressure (altimeter): 29.85 inches Hg (1011.0 mb)
Winds: from the ESE (120 degrees) at 2 MPH (2 knots; 1.0 m/s)
Visibility: 5 miles ( 8 km)
Ceiling: at least 12,000 feet AGL
Clouds: sky clear below 12,000 feet AGL
Weather: no significant weather observed at this time

METAR text: VLVT 230130Z 09002KT 8000 NSC 30/24 Q1011 NOSIG
Conditions at: VLVT (VIENTIANE/WATTAY, LA) observed 0130 UTC 23 October 2019
Temperature: 30.0°C (86°F)
Dewpoint: 24.0°C (75°F) [RH = 70%]
Pressure (altimeter): 29.85 inches Hg (1011.0 mb)
Winds: from the E (90 degrees) at 2 MPH (2 knots; 1.0 m/s)
Visibility: 5 miles ( 8 km)
Ceiling: at least 12,000 feet AGL
Clouds: sky clear below 12,000 feet AGL
Weather: no significant weather observed at this time

METAR text: VLVT 230100Z 36002KT 8000 NSC 28/25 Q1011 NOSIG
Conditions at: VLVT (VIENTIANE/WATTAY, LA) observed 0100 UTC 23 October 2019
Temperature: 28.0°C (82°F)
Dewpoint: 25.0°C (77°F) [RH = 84%]
Pressure (altimeter): 29.85 inches Hg (1011.0 mb)
Winds: from the N (360 degrees) at 2 MPH (2 knots; 1.0 m/s)
Visibility: 5 miles ( 8 km)
Ceiling: at least 12,000 feet AGL
Clouds: sky clear below 12,000 feet AGL
Weather: no significant weather observed at this time

METAR text: VLVT 230030Z 27002KT 3000 BR FEW200 27/25 Q1010 NOSIG
Conditions at: VLVT (VIENTIANE/WATTAY, LA) observed 0030 UTC 23 October 2019
Temperature: 27.0°C (81°F)
Dewpoint: 25.0°C (77°F) [RH = 89%]
Pressure (altimeter): 29.82 inches Hg (1010.0 mb)
Winds: from the W (270 degrees) at 2 MPH (2 knots; 1.0 m/s)
Visibility: 1.86 miles (2.99 km)
Ceiling: at least 12,000 feet AGL
Clouds: few clouds at 20000 feet AGL
Weather: BR  (mist)

METAR text: VLVT 230000Z 32002KT 3000 BR FEW200 25/25 Q1010 NOSIG
Conditions at: VLVT (VIENTIANE/WATTAY, LA) observed 0000 UTC 23 October 2019
Temperature: 25.0°C (77°F)
Dewpoint: 25.0°C (77°F) [RH = 100%]
Pressure (altimeter): 29.82 inches Hg (1010.0 mb)
Winds: from the NW (320 degrees) at 2 MPH (2 knots; 1.0 m/s)
Visibility: 1.86 miles (2.99 km)
Ceiling: at least 12,000 feet AGL
Clouds: few clouds at 20000 feet AGL
Weather: BR  (mist)

METAR text: VLVT 222330Z 34002KT 3000 BR SCT050 BKN100 24/24 Q1010 NOSIG
Conditions at: VLVT (VIENTIANE/WATTAY, LA) observed 2330 UTC 22 October 2019
Temperature: 24.0°C (75°F)
Dewpoint: 24.0°C (75°F) [RH = 100%]
Pressure (altimeter): 29.82 inches Hg (1010.0 mb)
Winds: from the NNW (340 degrees) at 2 MPH (2 knots; 1.0 m/s)
Visibility: 1.86 miles (2.99 km)
Ceiling: 10000 feet AGL
Clouds: scattered clouds at 5000 feet AGL
broken clouds at 10000 feet AGL
Weather: BR  (mist)

METAR text: VLVT 222300Z 34004KT 3000 BR FEW020 BKN050 25/25 Q1009 NOSIG
Conditions at: VLVT (VIENTIANE/WATTAY, LA) observed 2300 UTC 22 October 2019
Temperature: 25.0°C (77°F)
Dewpoint: 25.0°C (77°F) [RH = 100%]
Pressure (altimeter): 29.79 inches Hg (1009.0 mb)
Winds: from the NNW (340 degrees) at 5 MPH (4 knots; 2.1 m/s)
Visibility: 1.86 miles (2.99 km)
Ceiling: 5000 feet AGL
Clouds: few clouds at 2000 feet AGL
broken clouds at 5000 feet AGL
Weather: BR  (mist)

METAR text: VLVT 221630Z 00000KT 3000 BR FEW100 25/25 Q1009 NOSIG
Conditions at: VLVT (VIENTIANE/WATTAY, LA) observed 1630 UTC 22 October 2019
Temperature: 25.0°C (77°F)
Dewpoint: 25.0°C (77°F) [RH = 100%]
Pressure (altimeter): 29.79 inches Hg (1009.0 mb)
Winds: calm
Visibility: 1.86 miles (2.99 km)
Ceiling: at least 12,000 feet AGL
Clouds: few clouds at 10000 feet AGL
Weather: BR  (mist)

METAR text: VLVT 221600Z 00000KT 3000 BR FEW100 25/25 Q1009 NOSIG
Conditions at: VLVT (VIENTIANE/WATTAY, LA) observed 1600 UTC 22 October 2019
Temperature: 25.0°C (77°F)
Dewpoint: 25.0°C (77°F) [RH = 100%]
Pressure (altimeter): 29.79 inches Hg (1009.0 mb)
Winds: calm
Visibility: 1.86 miles (2.99 km)
Ceiling: at least 12,000 feet AGL
Clouds: few clouds at 10000 feet AGL
Weather: BR  (mist)

METAR text: VLVT 221530Z 00000KT 3000 BR FEW050 26/25 Q1009 NOSIG
Conditions at: VLVT (VIENTIANE/WATTAY, LA) observed 1530 UTC 22 October 2019
Temperature: 26.0°C (79°F)
Dewpoint: 25.0°C (77°F) [RH = 94%]
Pressure (altimeter): 29.79 inches Hg (1009.0 mb)
Winds: calm
Visibility: 1.86 miles (2.99 km)
Ceiling: at least 12,000 feet AGL
Clouds: few clouds at 5000 feet AGL
Weather: BR  (mist)

METAR text: VLVT 221500Z 00000KT 3000 BR FEW050 26/25 Q1009 NOSIG
Conditions at: VLVT (VIENTIANE/WATTAY, LA) observed 1500 UTC 22 October 2019
Temperature: 26.0°C (79°F)
Dewpoint: 25.0°C (77°F) [RH = 94%]
Pressure (altimeter): 29.79 inches Hg (1009.0 mb)
Winds: calm
Visibility: 1.86 miles (2.99 km)
Ceiling: at least 12,000 feet AGL
Clouds: few clouds at 5000 feet AGL
Weather: BR  (mist)

METAR text: VLVT 221430Z 00000KT 3000 BR NSC 26/25 Q1009 NOSIG
Conditions at: VLVT (VIENTIANE/WATTAY, LA) observed 1430 UTC 22 October 2019
Temperature: 26.0°C (79°F)
Dewpoint: 25.0°C (77°F) [RH = 94%]
Pressure (altimeter): 29.79 inches Hg (1009.0 mb)
Winds: calm
Visibility: 1.86 miles (2.99 km)
Ceiling: at least 12,000 feet AGL
Clouds: sky clear below 12,000 feet AGL
Weather: BR  (mist)

METAR text: VLVT 221400Z 00000KT 3000 BR NSC 26/25 Q1009 NOSIG
Conditions at: VLVT (VIENTIANE/WATTAY, LA) observed 1400 UTC 22 October 2019
Temperature: 26.0°C (79°F)
Dewpoint: 25.0°C (77°F) [RH = 94%]
Pressure (altimeter): 29.79 inches Hg (1009.0 mb)
Winds: calm
Visibility: 1.86 miles (2.99 km)
Ceiling: at least 12,000 feet AGL
Clouds: sky clear below 12,000 feet AGL
Weather: BR  (mist)

METAR text: VLVT 221330Z 00000KT 3000 BR NSC 26/24 Q1008 NOSIG
Conditions at: VLVT (VIENTIANE/WATTAY, LA) observed 1330 UTC 22 October 2019
Temperature: 26.0°C (79°F)
Dewpoint: 24.0°C (75°F) [RH = 89%]
Pressure (altimeter): 29.76 inches Hg (1008.0 mb)
Winds: calm
Visibility: 1.86 miles (2.99 km)
Ceiling: at least 12,000 feet AGL
Clouds: sky clear below 12,000 feet AGL
Weather: BR  (mist)

METAR text: VLVT 221300Z 00000KT 3000 BR NSC 27/24 Q1008 NOSIG
Conditions at: VLVT (VIENTIANE/WATTAY, LA) observed 1300 UTC 22 October 2019
Temperature: 27.0°C (81°F)
Dewpoint: 24.0°C (75°F) [RH = 84%]
Pressure (altimeter): 29.76 inches Hg (1008.0 mb)
Winds: calm
Visibility: 1.86 miles (2.99 km)
Ceiling: at least 12,000 feet AGL
Clouds: sky clear below 12,000 feet AGL
Weather: BR  (mist)

METAR text: VLVT 221230Z 00000KT 4000 BR NSC 27/24 Q1007 NOSIG
Conditions at: VLVT (VIENTIANE/WATTAY, LA) observed 1230 UTC 22 October 2019
Temperature: 27.0°C (81°F)
Dewpoint: 24.0°C (75°F) [RH = 84%]
Pressure (altimeter): 29.73 inches Hg (1007.0 mb)
Winds: calm
Visibility: 2.49 miles (4.01 km)
Ceiling: at least 12,000 feet AGL
Clouds: sky clear below 12,000 feet AGL
Weather: BR  (mist)

Forecast for: VLVT (VIENTIANE/WATTAY, LA)
Text: TAF VLVT 232300Z 2400/2424 14004KT 7000 FEW020 FEW050 SCT100
Forecast period: 0000 UTC 24 October 2019 to 0000 UTC 25 October 2019
Forecast type: FROM: standard forecast or significant change
Winds: from the SE (140 degrees) at 5 MPH (4 knots; 2.1 m/s)
Visibility: 4 miles (7 km)
Ceiling: at least 12,000 feet AGL
Clouds: few clouds at 2000 feet AGL
few clouds at 5000 feet AGL
scattered clouds at 10000 feet AGL
Weather: no significant weather forecast for this period